createdAt,value
2022-11-29T00:01:15.062Z,3.92
2022-11-29T00:03:43.066Z,4.11
2022-11-29T00:06:15.255Z,4.05
2022-11-29T00:08:43.709Z,4.09
2022-11-29T00:11:13.377Z,4.01
2022-11-29T00:13:41.556Z,3.99
2022-11-29T00:16:11.943Z,4.16
2022-11-29T00:18:39.858Z,4.02
2022-11-29T00:21:08.798Z,4.09
2022-11-29T00:23:38.011Z,4.03
2022-11-29T00:26:06.501Z,4.01
2022-11-29T00:28:35.114Z,3.75
2022-11-29T00:31:13.294Z,4.09
2022-11-29T00:33:41.164Z,4.08
2022-11-29T00:36:09.391Z,4.07
2022-11-29T00:38:38.789Z,4.04
2022-11-29T00:41:07.470Z,3.96
2022-11-29T00:43:35.523Z,3.98
2022-11-29T00:46:04.096Z,4.01
2022-11-29T00:48:32.807Z,2.96
2022-11-29T00:51:00.880Z,4.10
2022-11-29T00:53:29.093Z,4.09
2022-11-29T00:55:58.434Z,3.14
2022-11-29T00:58:26.300Z,3.90
2022-11-29T01:00:54.614Z,4.14
2022-11-29T01:03:22.833Z,4.15
2022-11-29T01:05:50.747Z,4.16
2022-11-29T01:08:19.123Z,4.16
2022-11-29T01:10:47.012Z,4.17
2022-11-29T01:13:16.222Z,4.25
2022-11-29T01:15:44.054Z,4.24
2022-11-29T01:18:11.885Z,4.23
2022-11-29T01:20:39.784Z,4.28
2022-11-29T01:23:07.708Z,4.22
2022-11-29T01:25:35.522Z,4.10
2022-11-29T01:28:03.391Z,4.19
2022-11-29T01:30:32.652Z,4.18
2022-11-29T01:33:00.585Z,4.09
2022-11-29T01:35:28.425Z,4.03
2022-11-29T01:37:56.233Z,4.11
2022-11-29T01:40:24.056Z,4.06
2022-11-29T01:42:51.910Z,4.03
2022-11-29T01:45:24.612Z,4.03
2022-11-29T01:47:58.402Z,3.78
2022-11-29T01:50:26.421Z,3.93
2022-11-29T01:52:54.277Z,3.99
2022-11-29T01:55:22.477Z,3.96
2022-11-29T01:57:50.829Z,3.93
2022-11-29T02:00:20.836Z,3.80
2022-11-29T02:02:53.566Z,3.66
2022-11-29T02:05:23.181Z,3.95
2022-11-29T02:07:54.671Z,3.76
2022-11-29T02:10:26.818Z,3.69
2022-11-29T02:13:02.775Z,3.59
2022-11-29T02:15:40.648Z,3.82
2022-11-29T02:18:14.680Z,3.84
2022-11-29T02:21:15.284Z,3.84
2022-11-29T02:24:19.535Z,3.81
2022-11-29T02:27:37.710Z,3.78
2022-11-29T02:30:17.335Z,3.94
2022-11-29T02:33:12.911Z,3.92
2022-11-29T02:36:04.011Z,3.76
2022-11-29T02:39:12.794Z,3.73
2022-11-29T02:41:59.403Z,3.77
2022-11-29T02:44:54.880Z,3.80
2022-11-29T02:47:49.289Z,3.89
2022-11-29T02:50:33.089Z,3.75
2022-11-29T02:53:07.223Z,3.88
2022-11-29T02:55:42.940Z,3.91
2022-11-29T02:58:20.344Z,3.98
2022-11-29T03:00:58.248Z,3.89
2022-11-29T03:03:34.200Z,3.96
2022-11-29T03:06:13.288Z,3.64
2022-11-29T03:08:48.934Z,3.84
2022-11-29T03:11:26.679Z,3.79
2022-11-29T03:14:07.506Z,3.17
2022-11-29T03:16:43.876Z,3.96
2022-11-29T03:19:38.240Z,3.86
2022-11-29T03:22:13.047Z,3.97
2022-11-29T03:24:51.146Z,3.86
2022-11-29T03:27:26.501Z,3.90
2022-11-29T03:29:59.704Z,3.91
2022-11-29T03:32:35.807Z,4.04
2022-11-29T03:35:11.259Z,3.82
2022-11-29T03:37:49.198Z,3.86
2022-11-29T03:40:22.248Z,3.85
2022-11-29T03:42:56.330Z,3.59
2022-11-29T03:45:28.734Z,3.73
2022-11-29T03:48:04.925Z,3.84
2022-11-29T03:50:37.531Z,3.79
2022-11-29T03:53:18.193Z,3.54
2022-11-29T03:55:55.891Z,3.73
2022-11-29T03:58:38.446Z,3.76
2022-11-29T04:01:38.935Z,3.56
2022-11-29T04:04:45.874Z,3.84
2022-11-29T04:07:33.843Z,3.48
2022-11-29T04:10:18.856Z,3.83
2022-11-29T04:13:18.004Z,3.71
2022-11-29T04:16:20.316Z,3.69
2022-11-29T04:19:14.224Z,3.69
2022-11-29T04:21:59.022Z,3.76
2022-11-29T04:25:00.364Z,3.85
2022-11-29T04:27:41.609Z,3.90
2022-11-29T04:30:18.054Z,3.78
2022-11-29T04:33:24.323Z,3.84
2022-11-29T04:36:07.038Z,3.89
2022-11-29T04:38:59.803Z,3.65
2022-11-29T04:41:55.273Z,3.84
2022-11-29T04:44:43.159Z,3.59
2022-11-29T04:47:32.708Z,3.53
2022-11-29T04:50:12.574Z,3.69
2022-11-29T04:53:01.238Z,3.63
2022-11-29T04:55:40.803Z,3.52
2022-11-29T04:58:20.379Z,3.59
2022-11-29T05:00:57.441Z,3.59
2022-11-29T05:03:37.017Z,3.55
2022-11-29T05:06:17.856Z,3.22
2022-11-29T05:08:57.206Z,3.61
2022-11-29T05:11:43.818Z,3.25
2022-11-29T05:14:18.358Z,3.52
2022-11-29T05:17:00.130Z,3.39
2022-11-29T05:19:49.555Z,3.48
2022-11-29T05:22:32.812Z,3.55
2022-11-29T05:25:15.026Z,3.70
2022-11-29T05:27:48.641Z,3.76
2022-11-29T05:30:19.316Z,3.76
2022-11-29T05:32:57.669Z,3.64
2022-11-29T05:35:50.111Z,3.73
2022-11-29T05:38:34.330Z,3.57
2022-11-29T05:41:16.436Z,3.67
2022-11-29T05:43:56.198Z,3.61
2022-11-29T05:46:32.240Z,3.42
2022-11-29T05:49:11.715Z,3.59
2022-11-29T05:51:47.135Z,3.27
2022-11-29T05:54:26.264Z,3.58
2022-11-29T05:57:07.479Z,3.68
2022-11-29T05:59:39.636Z,3.74
2022-11-29T06:02:24.365Z,3.68
2022-11-29T06:05:15.529Z,3.66
2022-11-29T06:07:53.710Z,3.65
2022-11-29T06:10:26.191Z,3.72
2022-11-29T06:13:06.814Z,3.85
2022-11-29T06:16:09.054Z,3.92
2022-11-29T06:18:57.431Z,3.73
2022-11-29T06:21:37.405Z,3.90
2022-11-29T06:24:25.698Z,3.83
2022-11-29T06:27:17.353Z,3.65
2022-11-29T06:29:52.986Z,3.60
2022-11-29T06:32:29.649Z,4.07
2022-11-29T06:35:03.520Z,4.04
2022-11-29T06:37:36.865Z,4.09
2022-11-29T06:40:05.687Z,4.15
2022-11-29T06:42:33.494Z,4.12
2022-11-29T06:45:01.873Z,3.98
2022-11-29T06:47:33.933Z,4.04
2022-11-29T06:50:11.946Z,4.05
2022-11-29T06:52:48.559Z,3.65
2022-11-29T06:55:20.750Z,4.20
2022-11-29T06:58:00.835Z,4.29
2022-11-29T07:00:38.659Z,4.32
2022-11-29T07:03:26.591Z,4.15
2022-11-29T07:05:55.059Z,4.33
2022-11-29T07:08:26.317Z,4.10
2022-11-29T07:10:55.719Z,4.48
2022-11-29T07:13:24.427Z,4.22
2022-11-29T07:16:02.773Z,4.44
2022-11-29T07:18:39.421Z,4.44
2022-11-29T07:21:19.081Z,4.40
2022-11-29T07:23:58.554Z,4.55
2022-11-29T07:26:36.298Z,4.50
2022-11-29T07:29:18.944Z,4.61
2022-11-29T07:32:00.699Z,4.50
2022-11-29T07:34:39.277Z,4.68
2022-11-29T07:37:16.000Z,4.74
2022-11-29T07:39:59.148Z,4.44
2022-11-29T07:42:37.855Z,4.63
2022-11-29T07:45:18.349Z,4.74
2022-11-29T07:47:46.367Z,4.73
2022-11-29T07:50:15.154Z,4.59
2022-11-29T07:52:43.049Z,4.75
2022-11-29T07:55:18.884Z,4.81
2022-11-29T07:57:47.097Z,4.56
2022-11-29T08:00:16.380Z,4.24
2022-11-29T08:02:44.323Z,4.58
2022-11-29T08:05:12.658Z,4.59
2022-11-29T08:07:42.235Z,4.33
2022-11-29T08:10:12.576Z,4.63
2022-11-29T08:12:45.683Z,4.65
2022-11-29T08:15:13.977Z,4.74
2022-11-29T08:17:41.836Z,4.33
2022-11-29T08:20:11.476Z,4.70
2022-11-29T08:22:39.471Z,4.79
2022-11-29T08:25:08.901Z,4.62
2022-11-29T08:27:37.708Z,4.65
2022-11-29T08:30:08.878Z,4.43
2022-11-29T08:32:36.718Z,4.74
2022-11-29T08:35:04.840Z,4.49
2022-11-29T08:37:32.709Z,4.93
2022-11-29T08:40:00.537Z,4.99
2022-11-29T08:42:28.364Z,4.68
2022-11-29T08:44:56.228Z,4.73
2022-11-29T08:47:37.794Z,4.61
2022-11-29T08:50:10.171Z,4.71
2022-11-29T08:52:57.692Z,4.68
2022-11-29T08:55:28.228Z,4.88
2022-11-29T08:58:02.393Z,4.87
2022-11-29T09:00:30.255Z,5.07
2022-11-29T09:03:19.660Z,4.98
2022-11-29T09:05:47.525Z,4.93
2022-11-29T09:08:15.478Z,5.22
2022-11-29T09:10:44.267Z,5.25
2022-11-29T09:13:12.891Z,5.16
2022-11-29T09:15:41.900Z,5.02
2022-11-29T09:18:11.466Z,4.90
2022-11-29T09:20:39.479Z,4.98
2022-11-29T09:23:07.309Z,4.98
2022-11-29T09:25:35.312Z,4.92
2022-11-29T09:28:03.472Z,5.02
2022-11-29T09:30:32.044Z,4.70
2022-11-29T09:33:02.693Z,4.21
2022-11-29T09:35:32.446Z,5.21
2022-11-29T09:38:00.356Z,5.27
2022-11-29T09:40:34.990Z,5.30
2022-11-29T09:43:12.035Z,5.34
2022-11-29T09:45:44.606Z,5.32
2022-11-29T09:48:32.974Z,5.45
2022-11-29T09:51:11.499Z,5.36
2022-11-29T09:53:58.235Z,5.46
2022-11-29T09:56:31.961Z,5.57
2022-11-29T09:59:04.781Z,5.44
2022-11-29T10:01:36.820Z,5.48
2022-11-29T10:04:10.956Z,5.50
2022-11-29T10:06:46.409Z,5.55
2022-11-29T10:09:21.616Z,5.56
2022-11-29T10:12:01.715Z,5.74
2022-11-29T10:14:34.928Z,5.68
2022-11-29T10:17:12.388Z,5.51
2022-11-29T10:19:45.631Z,5.43
2022-11-29T10:22:21.127Z,5.48
2022-11-29T10:24:53.517Z,5.38
2022-11-29T10:27:25.009Z,4.61
2022-11-29T10:29:53.141Z,5.63
2022-11-29T10:32:22.702Z,5.46
2022-11-29T10:34:50.908Z,5.60
2022-11-29T10:37:22.389Z,5.54
2022-11-29T10:39:54.285Z,5.39
2022-11-29T10:42:42.248Z,5.52
2022-11-29T10:45:18.678Z,5.65
2022-11-29T10:47:48.973Z,5.60
2022-11-29T10:50:20.983Z,5.39
2022-11-29T10:52:50.441Z,5.69
2022-11-29T10:55:19.346Z,5.64
2022-11-29T10:58:10.546Z,5.77
2022-11-29T11:00:56.019Z,5.84
2022-11-29T11:03:34.828Z,5.96
2022-11-29T11:06:14.914Z,5.80
2022-11-29T11:08:46.067Z,5.98
2022-11-29T11:11:15.860Z,5.88
2022-11-29T11:13:43.887Z,5.73
2022-11-29T11:16:18.019Z,5.66
2022-11-29T11:18:47.558Z,5.70
2022-11-29T11:21:18.078Z,5.78
2022-11-29T11:23:57.483Z,5.58
2022-11-29T11:26:26.922Z,5.80
2022-11-29T11:28:59.657Z,5.82
2022-11-29T11:31:31.884Z,5.52
2022-11-29T11:34:25.091Z,5.92
2022-11-29T11:36:53.508Z,5.89
2022-11-29T11:39:25.473Z,5.80
2022-11-29T11:42:11.067Z,5.91
2022-11-29T11:44:49.348Z,5.84
2022-11-29T11:47:21.308Z,5.84
2022-11-29T11:49:54.631Z,5.97
2022-11-29T11:52:25.814Z,6.06
2022-11-29T11:54:58.400Z,6.04
2022-11-29T11:57:27.991Z,6.03
2022-11-29T12:00:02.012Z,5.54
2022-11-29T12:02:39.462Z,5.87
2022-11-29T12:05:13.954Z,5.99
2022-11-29T12:10:40.866Z,6.05
2022-11-29T12:13:18.999Z,5.98
2022-11-29T12:15:50.717Z,5.90
2022-11-29T12:18:26.391Z,6.09
2022-11-29T12:20:59.386Z,6.12
2022-11-29T12:23:36.075Z,6.12
2022-11-29T12:26:13.646Z,6.13
2022-11-29T12:28:48.385Z,5.78
2022-11-29T12:31:31.446Z,5.97
2022-11-29T12:34:11.297Z,6.01
2022-11-29T12:36:51.823Z,6.08
2022-11-29T12:39:38.500Z,5.95
2022-11-29T12:42:18.573Z,6.07
2022-11-29T12:44:57.182Z,5.96
2022-11-29T12:47:36.518Z,6.14
2022-11-29T12:50:15.502Z,5.99
2022-11-29T12:52:49.758Z,5.82
2022-11-29T12:55:24.858Z,6.30
2022-11-29T12:58:03.784Z,6.35
2022-11-29T13:00:39.406Z,6.31
2022-11-29T13:03:19.178Z,6.36
2022-11-29T13:05:58.684Z,6.31
2022-11-29T13:08:54.430Z,6.26
2022-11-29T13:11:26.819Z,6.26
2022-11-29T13:14:34.739Z,6.09
2022-11-29T13:16:57.408Z,5.70
2022-11-29T13:19:35.566Z,5.96
2022-11-29T13:22:11.820Z,6.33
2022-11-29T13:24:45.072Z,6.35
2022-11-29T13:27:19.125Z,6.31
2022-11-29T13:29:50.195Z,6.24
2022-11-29T13:32:35.644Z,6.49
2022-11-29T13:35:09.783Z,6.37
2022-11-29T13:37:43.308Z,6.39
2022-11-29T13:40:24.549Z,6.28
2022-11-29T13:43:01.229Z,6.33
2022-11-29T13:45:36.922Z,6.25
2022-11-29T13:48:27.875Z,6.08
2022-11-29T13:50:57.744Z,6.02
2022-11-29T13:53:31.769Z,6.02
2022-11-29T13:56:01.940Z,6.09
2022-11-29T13:58:36.554Z,5.87
2022-11-29T14:01:10.640Z,6.10
2022-11-29T14:03:40.813Z,6.01
2022-11-29T14:06:12.320Z,5.87
2022-11-29T14:09:17.284Z,5.95
2022-11-29T14:11:38.197Z,6.02
2022-11-29T14:14:09.962Z,5.85
2022-11-29T14:16:45.593Z,5.00
2022-11-29T14:19:30.075Z,6.00
2022-11-29T14:22:24.797Z,6.04
2022-11-29T14:28:32.219Z,5.99
2022-11-29T14:31:01.806Z,5.90
2022-11-29T14:34:00.096Z,5.71
2022-11-29T14:36:48.859Z,5.67
2022-11-29T14:39:34.534Z,5.83
2022-11-29T14:42:14.497Z,5.77
2022-11-29T14:44:50.971Z,5.77
2022-11-29T14:47:26.499Z,5.65
2022-11-29T14:49:58.419Z,5.68
2022-11-29T14:52:30.442Z,5.63
2022-11-29T14:55:08.053Z,5.60
2022-11-29T14:58:22.051Z,5.56
2022-11-29T15:01:09.866Z,5.56
2022-11-29T15:03:48.930Z,5.54
2022-11-29T15:06:25.496Z,5.45
2022-11-29T15:09:02.057Z,5.46
2022-11-29T15:11:53.040Z,5.43
2022-11-29T15:14:30.567Z,5.31
2022-11-29T15:17:11.525Z,5.44
2022-11-29T15:19:53.876Z,5.41
2022-11-29T15:22:26.506Z,5.37
2022-11-29T15:24:56.586Z,5.35
2022-11-29T15:27:24.685Z,5.16
2022-11-29T15:29:52.918Z,5.06
2022-11-29T15:32:25.907Z,5.01
2022-11-29T15:34:55.518Z,4.97
2022-11-29T15:37:39.627Z,4.99
2022-11-29T15:40:12.552Z,4.60
2022-11-29T15:42:43.055Z,4.92
2022-11-29T15:45:34.470Z,4.93
2022-11-29T15:48:14.118Z,4.93
2022-11-29T15:50:47.143Z,4.85
2022-11-29T15:53:21.290Z,4.94
2022-11-29T15:55:51.690Z,4.89
2022-11-29T15:58:21.082Z,4.86
2022-11-29T16:00:50.587Z,4.82
2022-11-29T16:03:25.284Z,4.82
2022-11-29T16:06:01.003Z,4.79
2022-11-29T16:08:34.382Z,4.77
2022-11-29T16:11:02.662Z,4.84
2022-11-29T16:13:39.515Z,4.55
2022-11-29T16:16:15.394Z,4.73
2022-11-29T16:18:44.764Z,4.59
2022-11-29T16:21:27.358Z,4.71
2022-11-29T16:23:56.964Z,4.67
2022-11-29T16:26:29.545Z,4.67
2022-11-29T16:28:58.413Z,4.58
2022-11-29T16:31:34.296Z,4.74
2022-11-29T16:34:09.642Z,4.58
2022-11-29T16:36:38.091Z,4.67
2022-11-29T16:39:15.215Z,4.50
2022-11-29T16:41:43.055Z,4.42
2022-11-29T16:45:01.580Z,4.46
2022-11-29T16:47:31.015Z,4.49
2022-11-29T16:50:14.587Z,4.32
2022-11-29T16:52:42.572Z,4.40
2022-11-29T16:55:13.199Z,4.39
2022-11-29T16:57:41.611Z,4.36
2022-11-29T17:00:22.634Z,4.36
2022-11-29T17:02:50.545Z,4.03
2022-11-29T17:05:18.435Z,4.35
2022-11-29T17:07:46.613Z,4.42
2022-11-29T17:10:19.132Z,4.39
2022-11-29T17:12:48.381Z,4.35
2022-11-29T17:15:16.605Z,4.43
2022-11-29T17:17:44.746Z,4.29
2022-11-29T17:20:13.925Z,4.46
2022-11-29T17:22:42.598Z,4.20
2022-11-29T17:25:11.558Z,4.46
2022-11-29T17:27:40.738Z,4.43
2022-11-29T17:30:11.335Z,4.38
2022-11-29T17:32:39.306Z,4.51
2022-11-29T17:35:07.505Z,4.48
2022-11-29T17:37:35.356Z,4.26
2022-11-29T17:40:03.228Z,4.63
2022-11-29T17:42:31.030Z,4.72
2022-11-29T17:45:00.296Z,4.66
2022-11-29T17:47:28.110Z,4.76
2022-11-29T17:49:55.965Z,4.76
2022-11-29T17:52:23.820Z,4.56
2022-11-29T17:54:51.653Z,4.78
2022-11-29T17:57:19.918Z,4.82
2022-11-29T17:59:47.900Z,4.88
2022-11-29T18:02:17.320Z,4.80
2022-11-29T18:04:45.446Z,4.86
2022-11-29T18:07:15.897Z,4.87
2022-11-29T18:09:44.283Z,4.85
2022-11-29T18:12:12.358Z,4.79
2022-11-29T18:14:41.367Z,4.67
2022-11-29T18:17:09.412Z,4.84
2022-11-29T18:19:38.685Z,4.77
2022-11-29T18:22:06.499Z,4.71
2022-11-29T18:24:34.320Z,4.61
2022-11-29T18:27:02.155Z,4.37
2022-11-29T18:29:34.246Z,4.71
2022-11-29T18:32:06.351Z,4.28
2022-11-29T18:34:34.201Z,4.55
2022-11-29T18:37:03.434Z,4.58
2022-11-29T18:39:31.287Z,4.58
2022-11-29T18:41:59.095Z,4.58
2022-11-29T18:44:29.441Z,4.57
2022-11-29T18:46:57.656Z,4.41
2022-11-29T18:49:25.464Z,4.51
2022-11-29T18:51:53.307Z,4.50
2022-11-29T18:54:22.555Z,4.48
2022-11-29T18:56:51.687Z,4.46
2022-11-29T18:59:19.869Z,4.16
2022-11-29T19:01:49.108Z,4.40
2022-11-29T19:04:19.083Z,4.36
2022-11-29T19:06:47.239Z,4.06
2022-11-29T19:09:17.382Z,4.35
2022-11-29T19:11:46.583Z,4.01
2022-11-29T19:14:14.510Z,3.86
2022-11-29T19:16:44.799Z,3.61
2022-11-29T19:19:13.235Z,4.38
2022-11-29T19:21:41.596Z,4.00
2022-11-29T19:24:14.984Z,4.33
2022-11-29T19:26:45.474Z,4.02
2022-11-29T19:29:15.620Z,4.30
2022-11-29T19:31:43.835Z,4.25
2022-11-29T19:34:11.958Z,4.34
2022-11-29T19:36:42.997Z,4.26
2022-11-29T19:39:12.990Z,4.14
2022-11-29T19:41:42.337Z,4.30
2022-11-29T19:44:10.263Z,4.25
2022-11-29T19:46:41.901Z,4.33
2022-11-29T19:49:10.732Z,4.38
2022-11-29T19:51:38.908Z,4.35
2022-11-29T19:54:08.191Z,4.20
2022-11-29T19:56:36.239Z,4.28
2022-11-29T19:59:04.078Z,4.24
2022-11-29T20:01:40.096Z,4.24
2022-11-29T20:04:12.125Z,4.22
2022-11-29T20:06:40.195Z,4.24
2022-11-29T20:09:08.221Z,4.20
2022-11-29T20:11:36.498Z,4.00
2022-11-29T20:14:05.604Z,4.16
2022-11-29T20:16:34.273Z,3.77
2022-11-29T20:19:02.155Z,3.65
2022-11-29T20:21:33.829Z,3.63
2022-11-29T20:24:03.583Z,3.99
2022-11-29T20:26:33.328Z,4.00
2022-11-29T20:29:02.066Z,2.91
2022-11-29T20:31:30.029Z,4.04
2022-11-29T20:33:58.385Z,3.69
2022-11-29T20:36:38.851Z,4.06
2022-11-29T20:39:18.383Z,4.22
2022-11-29T20:41:55.463Z,4.19
2022-11-29T20:44:32.230Z,4.13
2022-11-29T20:47:00.702Z,4.17
2022-11-29T20:49:29.114Z,4.18
2022-11-29T20:52:04.106Z,4.06
2022-11-29T20:54:31.977Z,4.22
2022-11-29T20:56:59.784Z,4.26
2022-11-29T20:59:27.639Z,4.29
2022-11-29T21:01:56.190Z,4.32
2022-11-29T21:04:24.112Z,4.10
2022-11-29T21:06:51.950Z,4.23
2022-11-29T21:09:21.114Z,4.10
2022-11-29T21:11:49.548Z,4.27
2022-11-29T21:14:18.107Z,4.23
2022-11-29T21:16:46.341Z,4.39
2022-11-29T21:19:21.042Z,4.50
2022-11-29T21:22:02.926Z,4.50
2022-11-29T21:24:43.387Z,4.47
2022-11-29T21:27:15.228Z,4.40
2022-11-29T21:29:43.631Z,4.40
2022-11-29T21:32:21.601Z,4.30
2022-11-29T21:34:49.757Z,4.21
2022-11-29T21:37:19.608Z,4.20
2022-11-29T21:39:51.255Z,3.82
2022-11-29T21:42:19.357Z,3.90
2022-11-29T21:44:47.649Z,4.28
2022-11-29T21:47:16.697Z,4.22
2022-11-29T21:49:45.016Z,4.36
2022-11-29T21:52:19.180Z,4.41
2022-11-29T21:54:51.812Z,4.38
2022-11-29T21:57:19.683Z,4.31
2022-11-29T21:59:47.525Z,4.46
2022-11-29T22:02:15.455Z,4.23
2022-11-29T22:04:43.587Z,4.51
2022-11-29T22:07:11.617Z,4.47
2022-11-29T22:09:39.574Z,4.44
2022-11-29T22:12:31.968Z,4.39
2022-11-29T22:14:57.094Z,4.52
2022-11-29T22:17:24.999Z,4.13
2022-11-29T22:19:52.802Z,4.44
2022-11-29T22:22:20.653Z,4.47
2022-11-29T22:24:48.710Z,4.43
2022-11-29T22:27:18.646Z,4.55
2022-11-29T22:29:46.588Z,4.53
2022-11-29T22:32:14.393Z,4.50
2022-11-29T22:34:42.225Z,4.25
2022-11-29T22:37:10.082Z,4.58
2022-11-29T22:39:37.937Z,4.47
2022-11-29T22:42:05.865Z,4.42
2022-11-29T22:44:35.094Z,4.50
2022-11-29T22:47:03.083Z,4.18
2022-11-29T22:49:33.177Z,4.51
2022-11-29T22:52:01.205Z,4.69
2022-11-29T22:54:29.094Z,4.59
2022-11-29T22:56:56.922Z,4.60
2022-11-29T22:59:24.725Z,4.47
2022-11-29T23:01:53.949Z,4.75
2022-11-29T23:04:21.763Z,4.73
2022-11-29T23:06:49.572Z,4.66
2022-11-29T23:09:21.308Z,4.60
2022-11-29T23:11:52.974Z,4.72
2022-11-29T23:14:22.129Z,4.63
2022-11-29T23:16:50.314Z,4.75
2022-11-29T23:19:19.893Z,4.59
2022-11-29T23:21:47.979Z,4.71
2022-11-29T23:24:16.658Z,4.62
2022-11-29T23:26:46.633Z,4.46
2022-11-29T23:29:16.993Z,4.76
2022-11-29T23:31:44.985Z,4.40
2022-11-29T23:34:13.254Z,4.59
2022-11-29T23:36:44.799Z,4.57
2022-11-29T23:39:16.147Z,4.77
2022-11-29T23:41:43.963Z,4.45
2022-11-29T23:44:11.994Z,4.06
2022-11-29T23:46:39.840Z,4.57
2022-11-29T23:49:07.699Z,4.58
2022-11-29T23:51:35.503Z,4.58
2022-11-29T23:54:04.845Z,4.72
2022-11-29T23:56:35.659Z,4.82
2022-11-29T23:59:03.663Z,4.89
